Time;durP1;ratioP1;P1;durP2;ratioP2;P2;SDS_P1;SDS_P2;PMS_P1;PMS_P2;Temp;Humidity;BMP_temperature;BMP_pressure;BME280_temperature;BME280_humidity;BME280_pressure;Samples;Min_cycle;Max_cycle;Signal;HPM_P1;HPM_P2
2022/10/28 00:01:24;;;;;;;6.37;1.17;;;26.30;43.80;;;;;;5079037;28;20230;-69
2022/10/28 00:03:54;;;;;;;2.03;0.63;;;26.70;45.90;;;;;;5091239;28;20181;-68
2022/10/28 00:06:28;;;;;;;1.83;0.60;;;26.60;45.90;;;;;;5073759;28;20187;-68
2022/10/28 00:08:56;;;;;;;2.63;0.70;;;26.70;45.80;;;;;;5074426;28;20179;-68
2022/10/28 00:11:29;;;;;;;2.57;0.77;;;26.20;45.20;;;;;;5074707;28;20226;-68
2022/10/28 00:13:59;;;;;;;2.53;1.20;;;26.20;43.90;;;;;;5074664;28;20630;-69
2022/10/28 00:16:29;;;;;;;2.83;1.10;;;26.60;45.10;;;;;;5073947;28;20637;-68
2022/10/28 00:18:58;;;;;;;6.87;1.00;;;26.90;41.40;;;;;;5073093;28;20662;-67
2022/10/28 00:21:29;;;;;;;3.80;0.60;;;26.80;43.30;;;;;;5074010;28;20225;-67
2022/10/28 00:23:56;;;;;;;4.47;1.13;;;27.10;40.30;;;;;;5073894;28;20229;-67
2022/10/28 00:26:30;;;;;;;9.13;0.70;;;27.10;44.50;;;;;;5074038;28;20180;-67
2022/10/28 00:29:00;;;;;;;8.87;0.73;;;27.20;41.90;;;;;;5074228;28;20180;-68
2022/10/28 00:31:29;;;;;;;3.33;0.67;;;27.10;38.40;;;;;;5074077;28;20218;-68
2022/10/28 00:33:58;;;;;;;0.90;0.33;;;27.30;35.50;;;;;;5074062;28;20172;-66
2022/10/28 00:36:35;;;;;;;2.67;0.70;;;27.30;37.80;;;;;;5084896;28;20396;-68
2022/10/28 00:39:08;;;;;;;2.07;0.50;;;27.40;40.10;;;;;;5094318;28;20175;-67
2022/10/28 00:41:38;;;;;;;2.43;0.80;;;27.20;36.10;;;;;;5085913;28;20184;-69
2022/10/28 00:44:39;;;;;;;1.00;0.57;;;26.80;32.70;;;;;;5073786;28;20199;-69
2022/10/28 00:47:37;;;;;;;6.73;0.97;;;26.90;31.50;;;;;;5073819;28;20188;-69
2022/10/28 00:50:12;;;;;;;3.23;0.60;;;27.30;31.40;;;;;;5073774;28;20176;-68
2022/10/28 00:52:39;;;;;;;2.20;0.60;;;26.90;29.30;;;;;;5083197;28;20187;-68
2022/10/28 00:55:08;;;;;;;2.87;0.60;;;26.50;29.60;;;;;;5093663;28;20179;-68
2022/10/28 00:57:38;;;;;;;4.67;0.90;;;26.70;29.90;;;;;;5092149;28;20254;-68
2022/10/28 01:00:07;;;;;;;2.87;0.57;;;27.20;30.20;;;;;;5073604;28;20200;-68
2022/10/28 01:02:42;;;;;;;4.83;0.70;;;26.60;26.30;;;;;;5073326;28;20243;-68
2022/10/28 01:05:12;;;;;;;1.90;0.50;;;26.80;32.10;;;;;;5073310;28;20261;-68
2022/10/28 01:07:39;;;;;;;2.30;0.50;;;26.90;30.00;;;;;;5089479;28;20659;-68
2022/10/28 01:10:08;;;;;;;1.73;0.50;;;27.20;28.80;;;;;;5073272;28;20192;-68
2022/10/28 01:13:02;;;;;;;2.70;0.40;;;26.90;30.10;;;;;;5073211;28;20221;-68
2022/10/28 01:15:48;;;;;;;0.87;0.47;;;26.90;27.60;;;;;;5069846;28;20211;-68
2022/10/28 01:18:25;;;;;;;0.90;0.60;;;27.10;27.20;;;;;;5079026;28;20178;-68
2022/10/28 01:20:58;;;;;;;3.53;0.50;;;27.10;28.00;;;;;;5093293;28;20650;-68
2022/10/28 01:23:45;;;;;;;6.27;0.87;;;27.20;26.90;;;;;;5093388;28;20171;-68
2022/10/28 01:26:29;;;;;;;8.27;0.60;;;26.90;25.60;;;;;;5093308;28;20183;-68
2022/10/28 01:29:26;;;;;;;1.57;0.60;;;27.10;27.30;;;;;;5083347;28;20264;-67
2022/10/28 01:32:29;;;;;;;2.10;0.40;;;27.40;26.80;;;;;;5072845;28;20172;-68
2022/10/28 01:35:05;;;;;;;1.87;0.50;;;27.30;27.00;;;;;;5053534;28;20182;-68
2022/10/28 01:37:46;;;;;;;3.80;0.50;;;27.20;28.50;;;;;;5091334;28;20244;-69
2022/10/28 01:40:33;;;;;;;3.50;0.70;;;27.40;30.20;;;;;;5093117;28;20171;-69
2022/10/28 01:43:23;;;;;;;1.23;0.40;;;27.20;25.40;;;;;;5092982;28;20174;-68
2022/10/28 01:46:07;;;;;;;2.07;0.50;;;27.20;27.60;;;;;;5089669;28;20269;-68
2022/10/28 01:49:01;;;;;;;1.33;0.50;;;27.80;27.40;;;;;;5082708;28;20185;-69
2022/10/28 01:51:31;;;;;;;1.20;0.40;;;27.90;25.80;;;;;;5095115;28;20172;-68
2022/10/28 01:54:03;;;;;;;0.43;0.40;;;27.70;24.20;;;;;;5094705;28;20274;-68
2022/10/28 01:56:39;;;;;;;0.43;0.40;;;27.80;25.60;;;;;;5084656;28;20180;-68
2022/10/28 01:59:14;;;;;;;2.93;0.50;;;27.60;26.70;;;;;;5074474;28;20179;-69
2022/10/28 02:01:41;;;;;;;2.20;0.50;;;27.20;25.70;;;;;;5074858;28;20219;-69
2022/10/28 02:04:08;;;;;;;4.70;0.70;;;27.50;25.80;;;;;;5074305;28;20638;-69
2022/10/28 02:06:38;;;;;;;3.63;0.60;;;27.30;26.70;;;;;;5074458;28;20176;-69
2022/10/28 02:09:42;;;;;;;3.80;0.80;;;26.80;24.80;;;;;;5091773;28;20537;-69
2022/10/28 02:12:20;;;;;;;2.57;0.57;;;26.90;26.40;;;;;;5011420;28;20189;-68
2022/10/28 02:15:11;;;;;;;4.47;0.60;;;26.80;27.80;;;;;;5083646;28;20493;-68
2022/10/28 02:17:39;;;;;;;1.07;0.73;;;26.80;24.40;;;;;;5074681;28;20210;-68
2022/10/28 02:20:33;;;;;;;2.83;0.40;;;27.10;26.70;;;;;;5074578;28;20183;-69
2022/10/28 02:23:19;;;;;;;0.63;0.40;;;27.00;25.00;;;;;;5074317;28;20176;-69
2022/10/28 02:25:52;;;;;;;3.50;0.53;;;27.10;25.80;;;;;;5074033;28;20305;-68
2022/10/28 02:28:31;;;;;;;1.20;0.50;;;27.40;26.50;;;;;;5074221;28;20176;-70
2022/10/28 02:31:09;;;;;;;0.83;0.30;;;27.40;24.30;;;;;;5039199;28;20251;-69
2022/10/28 02:33:39;;;;;;;1.73;0.40;;;27.30;25.50;;;;;;5075104;28;20179;-68
2022/10/28 02:36:13;;;;;;;1.73;0.50;;;27.20;23.90;;;;;;5076462;28;20637;-68
2022/10/28 02:38:55;;;;;;;1.63;0.50;;;27.20;25.00;;;;;;5082166;28;20183;-67
2022/10/28 02:41:32;;;;;;;1.40;0.30;;;27.50;25.70;;;;;;5102312;28;20179;-68
2022/10/28 02:44:09;;;;;;;0.93;0.30;;;27.50;25.70;;;;;;5076824;28;20183;-68
2022/10/28 02:46:40;;;;;;;1.37;0.50;;;27.50;26.20;;;;;;5085345;28;20191;-69
2022/10/28 02:49:13;;;;;;;0.80;0.43;;;27.30;24.30;;;;;;5093352;28;20227;-68
2022/10/28 02:51:51;;;;;;;0.87;0.83;;;27.20;24.50;;;;;;5094265;28;20293;-68
2022/10/28 02:54:30;;;;;;;3.90;0.83;;;27.30;24.80;;;;;;5094807;28;20175;-68
2022/10/28 02:57:12;;;;;;;4.30;0.93;;;27.20;23.90;;;;;;5072693;28;20198;-68
2022/10/28 02:59:40;;;;;;;4.60;0.43;;;27.30;25.60;;;;;;5073787;28;20259;-68
2022/10/28 03:02:08;;;;;;;0.90;0.33;;;27.50;24.20;;;;;;5073741;28;20581;-68
2022/10/28 03:04:36;;;;;;;1.00;0.50;;;27.60;25.30;;;;;;5075296;28;20673;-68
2022/10/28 03:07:03;;;;;;;3.77;0.40;;;27.30;24.10;;;;;;5073834;28;20198;-68
2022/10/28 03:09:30;;;;;;;11.00;1.10;;;27.20;22.80;;;;;;5074014;28;20175;-68
2022/10/28 03:11:58;;;;;;;0.87;0.37;;;27.30;25.70;;;;;;5092134;28;20182;-68
2022/10/28 03:14:25;;;;;;;0.30;0.30;;;27.20;26.10;;;;;;5091468;28;20223;-68
2022/10/28 03:16:53;;;;;;;0.77;0.43;;;26.70;23.50;;;;;;5093320;28;20243;-68
2022/10/28 03:19:20;;;;;;;0.47;0.30;;;26.90;26.80;;;;;;5092987;28;20176;-68
2022/10/28 03:21:47;;;;;;;0.80;0.60;;;27.00;24.70;;;;;;5073209;28;20179;-68
2022/10/28 03:24:15;;;;;;;2.73;0.77;;;27.50;25.40;;;;;;5077137;28;20203;-68
2022/10/28 03:26:42;;;;;;;4.93;0.60;;;27.60;27.60;;;;;;5093587;28;20183;-68
2022/10/28 03:29:09;;;;;;;1.77;0.70;;;27.70;26.30;;;;;;5093951;28;20211;-68
2022/10/28 03:31:37;;;;;;;0.77;0.43;;;27.90;24.90;;;;;;5094128;28;20266;-68
2022/10/28 03:34:04;;;;;;;2.80;0.40;;;28.00;26.20;;;;;;5092775;28;20179;-69
2022/10/28 03:36:32;;;;;;;1.23;0.47;;;28.30;26.50;;;;;;5094242;28;20176;-68
2022/10/28 03:38:59;;;;;;;3.50;0.70;;;28.20;23.90;;;;;;5084667;28;20187;-68
2022/10/28 03:41:26;;;;;;;0.60;0.40;;;27.80;23.30;;;;;;5074125;28;20243;-68
2022/10/28 03:43:54;;;;;;;2.33;0.50;;;27.50;22.00;;;;;;5061604;28;20201;-68
2022/10/28 03:46:21;;;;;;;3.27;0.60;;;27.10;24.20;;;;;;5098793;28;20240;-68
2022/10/28 03:48:52;;;;;;;3.70;0.57;;;27.20;24.70;;;;;;5099301;28;20243;-68
2022/10/28 03:51:22;;;;;;;2.83;0.50;;;27.50;23.50;;;;;;5099995;28;20195;-68
2022/10/28 03:53:49;;;;;;;1.53;0.50;;;27.40;24.90;;;;;;5097624;28;20236;-68
2022/10/28 03:56:17;;;;;;;1.63;0.30;;;27.30;23.20;;;;;;5094670;28;20190;-68
2022/10/28 03:58:47;;;;;;;1.23;0.40;;;27.20;23.50;;;;;;5085273;28;20210;-69
2022/10/28 04:01:14;;;;;;;0.83;0.60;;;27.10;24.60;;;;;;5077537;28;20257;-69
2022/10/28 04:03:41;;;;;;;1.73;0.50;;;26.90;23.20;;;;;;5077776;28;20183;-68
2022/10/28 04:06:09;;;;;;;0.93;0.50;;;27.20;24.60;;;;;;5093476;28;20211;-68
2022/10/28 04:08:41;;;;;;;0.93;0.40;;;26.70;23.30;;;;;;5098165;28;20636;-68
2022/10/28 04:11:09;;;;;;;2.50;0.37;;;27.10;24.70;;;;;;5097300;28;20179;-68
2022/10/28 04:13:36;;;;;;;3.37;0.47;;;27.60;22.90;;;;;;5095095;28;20183;-68
2022/10/28 04:16:04;;;;;;;3.83;0.50;;;27.30;21.80;;;;;;5085549;28;20191;-68
2022/10/28 04:18:31;;;;;;;2.20;0.63;;;27.30;22.10;;;;;;5097156;28;20215;-68
2022/10/28 04:20:58;;;;;;;1.87;0.47;;;27.40;22.50;;;;;;5096142;28;20265;-68
2022/10/28 04:23:26;;;;;;;0.70;0.40;;;27.50;22.60;;;;;;5097313;28;20194;-68
2022/10/28 04:25:54;;;;;;;1.43;0.40;;;27.60;22.90;;;;;;5083568;28;20214;-68
2022/10/28 04:28:25;;;;;;;0.47;0.33;;;27.30;21.90;;;;;;5097478;28;20211;-68
2022/10/28 04:30:52;;;;;;;3.33;0.63;;;26.70;22.10;;;;;;5097364;28;20175;-67
2022/10/28 04:33:20;;;;;;;1.13;0.50;;;26.80;23.80;;;;;;5088169;28;20172;-69
2022/10/28 04:35:47;;;;;;;2.37;0.40;;;26.50;23.40;;;;;;5082225;28;20526;-69
2022/10/28 04:38:15;;;;;;;1.80;0.47;;;26.30;24.30;;;;;;5097631;28;20172;-69
2022/10/28 04:40:48;;;;;;;0.63;0.30;;;26.60;24.10;;;;;;5096456;28;20202;-68
2022/10/28 04:43:16;;;;;;;4.67;0.60;;;26.50;23.00;;;;;;5084155;28;20561;-68
2022/10/28 04:45:46;;;;;;;0.50;0.30;;;26.40;24.10;;;;;;5096460;28;20595;-69
2022/10/28 04:48:15;;;;;;;2.10;0.30;;;26.80;22.90;;;;;;5096582;28;20262;-68
2022/10/28 04:50:42;;;;;;;3.90;0.53;;;27.00;24.10;;;;;;5077776;28;20187;-68
2022/10/28 04:53:09;;;;;;;3.07;0.50;;;27.00;24.90;;;;;;5075813;28;20176;-68
2022/10/28 04:55:37;;;;;;;0.90;0.40;;;26.50;24.10;;;;;;5077998;28;20206;-68
2022/10/28 04:58:05;;;;;;;1.13;0.40;;;25.90;24.30;;;;;;5077175;28;20900;-68
2022/10/28 05:00:32;;;;;;;2.43;0.63;;;25.70;24.20;;;;;;5076469;28;20183;-71
2022/10/28 05:03:03;;;;;;;2.93;0.70;;;26.30;25.40;;;;;;5075955;28;20720;-69
2022/10/28 05:05:30;;;;;;;8.17;0.73;;;26.40;23.80;;;;;;5076543;28;20255;-69
2022/10/28 05:07:59;;;;;;;2.37;0.40;;;26.40;25.10;;;;;;5076583;28;20164;-69
2022/10/28 05:10:29;;;;;;;5.33;0.50;;;26.30;23.40;;;;;;5076000;28;20253;-69
2022/10/28 05:12:56;;;;;;;1.80;0.60;;;26.50;23.70;;;;;;5059672;28;20188;-68
2022/10/28 05:15:25;;;;;;;3.03;0.50;;;26.00;23.30;;;;;;5093941;28;20191;-68
2022/10/28 05:17:55;;;;;;;1.80;0.57;;;25.90;23.10;;;;;;5096651;28;21064;-68
2022/10/28 05:20:23;;;;;;;1.23;0.70;;;26.00;23.80;;;;;;5096249;28;20176;-68
2022/10/28 05:22:54;;;;;;;0.60;0.30;;;25.90;23.20;;;;;;5094469;28;20171;-69
2022/10/28 05:25:22;;;;;;;1.47;0.50;;;25.50;22.40;;;;;;5096032;28;20225;-68
2022/10/28 05:27:49;;;;;;;1.97;0.57;;;25.70;24.20;;;;;;5078915;28;20172;-69
2022/10/28 05:30:17;;;;;;;2.53;0.60;;;25.80;22.40;;;;;;5096504;28;20224;-69
2022/10/28 05:32:44;;;;;;;1.17;0.50;;;26.00;23.60;;;;;;5078061;28;20171;-70
2022/10/28 05:35:12;;;;;;;2.83;0.40;;;26.20;23.80;;;;;;5077426;28;20184;-68
2022/10/28 05:37:39;;;;;;;6.47;0.80;;;25.80;22.60;;;;;;5076035;28;20258;-69
2022/10/28 05:40:07;;;;;;;0.50;0.40;;;25.70;23.70;;;;;;5092551;28;20191;-69
2022/10/28 05:42:41;;;;;;;0.93;0.40;;;25.50;22.70;;;;;;5095464;28;20186;-70
2022/10/28 05:45:11;;;;;;;1.23;0.50;;;25.30;21.80;;;;;;5076207;28;20218;-70
2022/10/28 05:47:48;;;;;;;3.77;0.70;;;24.90;21.20;;;;;;5079563;28;20183;-68
2022/10/28 05:50:19;;;;;;;4.17;0.80;;;24.70;21.10;;;;;;5081973;28;20179;-68
2022/10/28 05:52:54;;;;;;;2.23;0.70;;;25.00;22.60;;;;;;5076200;28;20194;-69
2022/10/28 05:55:26;;;;;;;3.40;0.60;;;25.00;21.60;;;;;;5077019;28;20184;-69
2022/10/28 05:57:54;;;;;;;1.50;0.90;;;24.70;22.10;;;;;;5080099;28;20175;-69
2022/10/28 06:00:24;;;;;;;1.77;0.70;;;24.60;21.40;;;;;;5095035;28;20225;-68
2022/10/28 06:02:51;;;;;;;2.03;0.50;;;24.60;22.20;;;;;;5094060;28;20226;-69
2022/10/28 06:05:19;;;;;;;2.10;0.40;;;24.50;22.50;;;;;;5093593;28;20210;-69
2022/10/28 06:07:46;;;;;;;1.43;0.60;;;24.40;23.70;;;;;;5095426;28;20195;-70
2022/10/28 06:10:14;;;;;;;0.83;0.47;;;24.10;23.60;;;;;;5088072;28;20182;-68
2022/10/28 06:12:41;;;;;;;4.17;0.60;;;23.90;23.80;;;;;;5074227;28;20187;-68
2022/10/28 06:15:09;;;;;;;2.10;0.40;;;23.80;25.40;;;;;;5074430;28;20664;-70
2022/10/28 06:17:37;;;;;;;7.07;0.90;;;24.00;25.60;;;;;;5073244;28;20176;-68
2022/10/28 06:20:05;;;;;;;2.77;0.70;;;24.00;24.90;;;;;;5056242;28;20190;-70
2022/10/28 06:22:33;;;;;;;4.00;0.60;;;24.20;24.90;;;;;;5074807;28;20206;-68
2022/10/28 06:25:00;;;;;;;2.63;0.50;;;24.30;26.00;;;;;;5083267;28;20214;-71
2022/10/28 06:27:27;;;;;;;0.90;0.60;;;24.20;24.70;;;;;;5074282;28;20183;-69
2022/10/28 06:29:55;;;;;;;3.40;0.57;;;23.90;24.90;;;;;;5084113;28;20236;-68
2022/10/28 06:32:22;;;;;;;2.97;0.50;;;24.10;25.90;;;;;;5094822;28;20208;-70
2022/10/28 06:34:49;;;;;;;3.10;0.70;;;24.00;23.50;;;;;;5087595;28;20193;-70
2022/10/28 06:37:17;;;;;;;1.27;0.50;;;24.00;24.50;;;;;;5086235;28;20187;-69
2022/10/28 06:39:51;;;;;;;1.00;0.67;;;23.60;25.20;;;;;;5094575;28;20216;-70
2022/10/28 06:42:20;;;;;;;1.43;0.50;;;23.30;25.40;;;;;;5094432;28;20556;-69
2022/10/28 06:44:48;;;;;;;3.43;0.67;;;23.10;24.30;;;;;;5083453;28;20276;-69
2022/10/28 06:47:16;;;;;;;4.47;0.70;;;23.20;25.20;;;;;;5095304;28;20179;-68
2022/10/28 06:49:43;;;;;;;1.13;0.43;;;23.10;26.00;;;;;;5094222;28;20272;-69
2022/10/28 06:52:11;;;;;;;3.03;1.10;;;23.10;26.50;;;;;;5097499;28;20175;-69
2022/10/28 06:54:38;;;;;;;1.13;0.50;;;23.10;27.50;;;;;;5103282;28;20583;-69
2022/10/28 06:57:06;;;;;;;2.43;0.50;;;22.90;26.40;;;;;;5085828;28;20183;-69
2022/10/28 06:59:33;;;;;;;0.93;0.60;;;23.00;27.40;;;;;;5103913;28;20692;-68
2022/10/28 07:02:01;;;;;;;1.70;0.60;;;23.10;27.50;;;;;;5072825;28;20742;-70
2022/10/28 07:04:28;;;;;;;1.77;0.50;;;23.00;27.40;;;;;;5093486;28;20553;-70
2022/10/28 07:06:57;;;;;;;0.67;0.40;;;23.10;26.90;;;;;;5089945;28;20187;-70
2022/10/28 07:09:24;;;;;;;0.90;0.40;;;23.20;26.00;;;;;;5072283;28;20824;-70
2022/10/28 07:11:52;;;;;;;3.20;0.53;;;23.30;26.60;;;;;;5072624;28;20248;-70
2022/10/28 07:14:19;;;;;;;0.50;0.50;;;23.30;27.10;;;;;;5073374;28;20181;-68
2022/10/28 07:16:46;;;;;;;3.60;0.40;;;23.30;27.50;;;;;;5078299;28;20187;-71
2022/10/28 07:19:14;;;;;;;1.70;0.57;;;23.20;28.40;;;;;;5098630;28;20211;-71
2022/10/28 07:21:41;;;;;;;0.93;0.40;;;23.40;28.80;;;;;;5097755;28;20391;-70
2022/10/28 07:24:09;;;;;;;1.00;0.40;;;23.20;28.30;;;;;;5097338;28;20187;-71
2022/10/28 07:26:36;;;;;;;0.60;0.40;;;22.90;28.90;;;;;;5086925;28;20190;-70
2022/10/28 07:29:03;;;;;;;0.73;0.40;;;22.90;29.10;;;;;;5098349;28;20175;-69
2022/10/28 07:31:31;;;;;;;1.20;0.60;;;23.00;29.40;;;;;;5099027;28;20229;-68
2022/10/28 07:33:59;;;;;;;2.53;0.40;;;22.80;28.30;;;;;;5081122;28;20183;-70
2022/10/28 07:36:26;;;;;;;2.77;0.73;;;22.80;28.60;;;;;;5082479;28;20191;-69
2022/10/28 07:38:53;;;;;;;4.57;1.03;;;22.90;28.70;;;;;;5097949;28;20550;-70
2022/10/28 07:41:22;;;;;;;1.43;0.97;;;22.90;29.50;;;;;;5099992;28;20182;-69
2022/10/28 07:43:51;;;;;;;3.00;1.63;;;22.70;28.80;;;;;;5099330;28;20179;-70
2022/10/28 07:46:19;;;;;;;1.83;1.20;;;22.60;29.40;;;;;;5086805;28;20582;-70
2022/10/28 07:48:47;;;;;;;1.83;1.20;;;22.60;29.50;;;;;;5096725;28;20183;-71
2022/10/28 07:51:16;;;;;;;4.07;1.80;;;22.50;29.90;;;;;;5098833;28;20171;-70
2022/10/28 07:53:43;;;;;;;2.93;1.00;;;22.30;30.50;;;;;;5098582;28;20175;-71
2022/10/28 07:56:12;;;;;;;2.37;0.80;;;22.20;30.60;;;;;;5080585;28;20672;-68
2022/10/28 07:58:41;;;;;;;3.33;0.70;;;22.10;32.10;;;;;;5080055;28;20273;-68
2022/10/28 08:01:12;;;;;;;0.30;0.30;;;21.90;33.80;;;;;;5077728;28;20191;-68
2022/10/28 08:03:40;;;;;;;1.97;0.50;;;21.70;32.40;;;;;;5085171;28;20201;-69
2022/10/28 08:06:18;;;;;;;1.30;0.43;;;21.60;31.10;;;;;;5099475;28;20209;-68
2022/10/28 08:08:48;;;;;;;1.43;0.50;;;21.40;30.90;;;;;;5078397;28;20195;-69
2022/10/28 08:11:18;;;;;;;1.80;0.50;;;21.30;31.30;;;;;;5077593;28;20215;-68
2022/10/28 08:13:46;;;;;;;0.50;0.40;;;21.10;31.20;;;;;;5085774;28;20175;-69
2022/10/28 08:16:14;;;;;;;0.97;0.60;;;21.00;32.40;;;;;;5097954;28;20189;-69
2022/10/28 08:18:41;;;;;;;1.10;0.50;;;21.00;32.40;;;;;;5080467;28;20218;-69
2022/10/28 08:21:11;;;;;;;0.80;0.50;;;20.90;31.80;;;;;;5078151;28;20187;-69
2022/10/28 08:23:45;;;;;;;2.13;0.50;;;20.90;31.70;;;;;;5078264;28;20185;-69
2022/10/28 08:26:15;;;;;;;0.73;0.60;;;20.80;32.10;;;;;;5087510;28;20220;-69
2022/10/28 08:28:42;;;;;;;0.50;0.40;;;20.80;33.30;;;;;;5062046;28;20195;-68
2022/10/28 08:31:13;;;;;;;2.40;0.50;;;20.70;32.40;;;;;;5077700;28;20184;-69
2022/10/28 08:33:46;;;;;;;0.40;0.40;;;20.70;32.80;;;;;;5077798;28;20187;-69
2022/10/28 08:36:16;;;;;;;2.53;0.60;;;20.60;33.80;;;;;;5077543;28;20220;-68
2022/10/28 08:38:44;;;;;;;2.57;0.73;;;20.60;34.00;;;;;;5077444;28;20184;-68
2022/10/28 08:41:17;;;;;;;4.43;0.50;;;20.50;34.70;;;;;;5077430;28;20188;-69
2022/10/28 08:44:00;;;;;;;1.00;0.57;;;20.40;35.60;;;;;;5081672;28;20189;-69
2022/10/28 08:46:45;;;;;;;2.20;0.60;;;20.30;35.60;;;;;;5098002;28;20208;-69
2022/10/28 08:49:17;;;;;;;2.83;0.40;;;20.30;36.10;;;;;;5098656;28;20174;-69
2022/10/28 08:51:53;;;;;;;1.73;0.50;;;20.30;36.70;;;;;;5100571;28;20274;-68
2022/10/28 08:54:49;;;;;;;1.03;0.30;;;20.30;38.20;;;;;;5083303;28;20272;-69
2022/10/28 08:57:33;;;;;;;1.57;0.53;;;20.30;38.60;;;;;;5062977;28;20270;-69
2022/10/28 09:00:02;;;;;;;1.00;0.50;;;20.20;40.70;;;;;;5097299;28;20183;-71
2022/10/28 09:02:50;;;;;;;0.47;0.47;;;20.10;41.50;;;;;;5097116;28;20628;-67
2022/10/28 09:05:26;;;;;;;1.80;0.60;;;20.00;42.90;;;;;;5076732;28;20215;-69
2022/10/28 09:07:55;;;;;;;3.40;0.50;;;19.90;45.40;;;;;;5076638;28;20175;-70
2022/10/28 09:11:02;;;;;;;1.73;0.60;;;19.90;45.50;;;;;;5076206;28;20189;-69
2022/10/28 09:14:05;;;;;;;11.30;1.00;;;19.80;46.10;;;;;;5059561;28;20190;-69
2022/10/28 09:16:40;;;;;;;0.60;0.50;;;19.70;47.00;;;;;;5043220;28;20212;-70
2022/10/28 09:19:37;;;;;;;1.03;0.57;;;19.70;49.90;;;;;;5096883;28;20224;-69
2022/10/28 09:22:18;;;;;;;0.63;0.50;;;19.60;49.70;;;;;;5088137;28;20204;-69
2022/10/28 09:25:14;;;;;;;2.23;0.80;;;19.50;51.20;;;;;;5080784;28;20230;-70
2022/10/28 09:27:54;;;;;;;1.03;0.67;;;19.40;53.20;;;;;;5038315;28;20271;-70
2022/10/28 09:30:48;;;;;;;1.13;0.50;;;19.40;54.70;;;;;;5076069;28;20277;-70
2022/10/28 09:33:31;;;;;;;2.17;0.67;;;19.40;53.90;;;;;;5087988;28;20183;-71
2022/10/28 09:36:00;;;;;;;2.57;0.60;;;19.30;55.60;;;;;;5095601;28;20272;-71
2022/10/28 09:38:29;;;;;;;3.90;0.80;;;19.30;57.60;;;;;;5099004;28;20172;-71
2022/10/28 09:41:03;;;;;;;1.57;0.80;;;19.30;56.60;;;;;;5076164;28;20180;-71
2022/10/28 09:43:37;;;;;;;0.93;0.57;;;19.30;57.60;;;;;;5095475;28;20171;-67
2022/10/28 09:46:25;;;;;;;2.93;0.60;;;19.20;56.60;;;;;;5095600;28;20210;-70
2022/10/28 09:48:56;;;;;;;1.30;0.60;;;19.10;61.00;;;;;;5083663;28;20184;-71
2022/10/28 09:51:42;;;;;;;1.37;0.67;;;19.10;63.10;;;;;;5081731;28;20175;-70
2022/10/28 09:54:11;;;;;;;1.23;0.70;;;19.00;64.40;;;;;;5095039;28;20170;-70
2022/10/28 09:56:39;;;;;;;1.37;0.60;;;19.00;67.70;;;;;;5094824;28;20229;-69
2022/10/28 09:59:11;;;;;;;1.77;0.93;;;18.90;74.20;;;;;;5095854;28;20284;-69
2022/10/28 10:01:51;;;;;;;1.40;1.13;;;18.80;72.50;;;;;;5107032;27;20530;-69
2022/10/28 10:04:24;;;;;;;1.13;0.80;;;18.70;76.70;;;;;;5091275;28;20660;-69
2022/10/28 10:06:59;;;;;;;1.63;0.90;;;18.60;76.80;;;;;;5091122;28;20542;-70
2022/10/28 10:09:30;;;;;;;1.27;0.80;;;18.60;78.20;;;;;;5087432;28;20676;-70
2022/10/28 10:12:11;;;;;;;1.83;0.87;;;18.50;86.20;;;;;;5083582;28;20172;-69
2022/10/28 10:14:51;;;;;;;1.20;0.70;;;18.40;82.70;;;;;;5089753;28;20558;-69
2022/10/28 10:17:39;;;;;;;2.97;0.90;;;18.40;85.20;;;;;;5090705;28;20191;-70
2022/10/28 10:20:16;;;;;;;1.37;0.83;;;18.40;91.30;;;;;;5081608;28;20207;-68
2022/10/28 10:22:45;;;;;;;1.50;0.80;;;18.50;81.80;;;;;;5089863;28;20186;-69
2022/10/28 10:25:18;;;;;;;0.97;0.60;;;18.70;79.80;;;;;;5076143;28;20645;-70
2022/10/28 10:27:56;;;;;;;2.57;0.80;;;18.80;79.50;;;;;;5082289;28;20264;-68
2022/10/28 10:30:57;;;;;;;1.83;0.60;;;18.80;77.20;;;;;;5091431;28;20664;-68
2022/10/28 10:33:39;;;;;;;2.13;0.60;;;18.90;76.60;;;;;;5089948;28;20530;-68
2022/10/28 10:36:13;;;;;;;3.00;0.50;;;19.00;76.70;;;;;;5091303;28;20183;-68
2022/10/28 10:38:55;;;;;;;0.77;0.40;;;18.90;78.20;;;;;;5091189;28;20171;-68
2022/10/28 10:41:43;;;;;;;3.57;0.50;;;18.90;77.70;;;;;;5091143;28;20218;-68
2022/10/28 10:44:22;;;;;;;2.87;0.60;;;18.90;78.90;;;;;;5091810;28;20178;-68
2022/10/28 10:47:01;;;;;;;0.77;0.50;;;18.80;81.20;;;;;;5091347;28;20191;-68
2022/10/28 10:49:32;;;;;;;1.57;0.50;;;18.80;82.00;;;;;;5091821;28;20179;-68
2022/10/28 10:52:14;;;;;;;4.00;0.57;;;18.70;82.80;;;;;;5091874;28;20187;-68
2022/10/28 10:54:57;;;;;;;4.23;0.97;;;18.70;83.10;;;;;;5091192;28;20262;-68
2022/10/28 10:57:26;;;;;;;0.97;0.60;;;18.70;82.90;;;;;;5090892;28;20704;-68
2022/10/28 10:59:57;;;;;;;1.63;0.50;;;18.70;85.60;;;;;;5091020;28;20235;-68
2022/10/28 11:02:33;;;;;;;1.10;0.60;;;18.60;85.00;;;;;;5106901;28;20199;-68
2022/10/28 11:05:07;;;;;;;1.10;0.60;;;18.50;87.30;;;;;;5090535;28;20193;-68
2022/10/28 11:07:35;;;;;;;1.43;0.53;;;18.50;88.10;;;;;;5090110;28;20187;-69
2022/10/28 11:10:04;;;;;;;0.67;0.50;;;18.40;88.70;;;;;;5089960;28;20163;-68
2022/10/28 11:12:34;;;;;;;3.13;0.60;;;18.40;90.00;;;;;;5080068;28;20181;-69
2022/10/28 11:15:17;;;;;;;1.60;0.80;;;18.40;89.70;;;;;;5075548;28;20176;-68
2022/10/28 11:18:00;;;;;;;1.43;0.53;;;18.40;90.40;;;;;;5075783;28;20210;-68
2022/10/28 11:20:58;;;;;;;3.97;0.60;;;18.30;90.90;;;;;;5076232;28;20299;-68
2022/10/28 11:23:53;;;;;;;0.93;0.50;;;18.40;91.00;;;;;;5074098;28;20195;-68
2022/10/28 11:26:23;;;;;;;3.70;0.50;;;18.30;92.50;;;;;;5075737;28;20265;-68
2022/10/28 11:29:09;;;;;;;1.70;0.53;;;18.20;94.00;;;;;;5075870;28;20172;-68
2022/10/28 11:31:48;;;;;;;1.23;0.50;;;18.10;93.90;;;;;;5075974;28;20637;-68
2022/10/28 11:34:34;;;;;;;1.47;0.63;;;18.10;93.60;;;;;;5075579;28;20180;-68
2022/10/28 11:37:04;;;;;;;1.90;0.60;;;18.10;95.10;;;;;;5075772;28;20274;-68
2022/10/28 11:39:52;;;;;;;0.90;0.50;;;18.00;96.40;;;;;;5075649;28;20176;-68
2022/10/28 11:42:35;;;;;;;1.57;0.60;;;17.90;98.30;;;;;;5075396;28;20668;-68
2022/10/28 11:45:21;;;;;;;1.90;0.50;;;17.80;99.30;;;;;;5075547;28;20214;-68
2022/10/28 11:48:10;;;;;;;2.23;0.50;;;17.80;99.90;;;;;;5075383;28;20180;-68
2022/10/28 11:51:10;;;;;;;0.80;0.50;;;17.70;99.90;;;;;;5075596;28;20229;-68
2022/10/28 11:53:55;;;;;;;1.23;0.63;;;17.60;99.90;;;;;;5070686;28;20250;-68
2022/10/28 11:56:38;;;;;;;2.87;0.50;;;17.60;99.90;;;;;;5075304;28;20683;-68
2022/10/28 11:59:23;;;;;;;0.80;0.60;;;17.80;99.90;;;;;;5075364;28;20262;-68
2022/10/28 12:02:15;;;;;;;1.90;0.60;;;17.80;99.90;;;;;;5075398;28;20246;-68
2022/10/28 12:05:11;;;;;;;2.53;0.60;;;17.70;99.90;;;;;;5075371;28;20236;-68
2022/10/28 12:08:03;;;;;;;0.43;0.43;;;17.70;99.90;;;;;;5072424;28;20279;-68
2022/10/28 12:11:03;;;;;;;2.67;0.53;;;17.60;99.90;;;;;;5074748;28;20588;-68
2022/10/28 12:13:46;;;;;;;1.00;0.53;;;17.60;99.90;;;;;;5075227;28;20262;-69
2022/10/28 12:16:21;;;;;;;2.23;0.60;;;17.50;99.90;;;;;;5074759;28;20205;-68
2022/10/28 12:19:13;;;;;;;3.20;1.20;;;17.50;99.90;;;;;;5074875;28;20172;-68
2022/10/28 12:22:04;;;;;;;2.47;0.63;;;17.60;99.90;;;;;;5074878;28;20286;-68
2022/10/28 12:24:36;;;;;;;2.83;0.77;;;17.60;99.90;;;;;;5073340;28;20211;-68
2022/10/28 12:27:21;;;;;;;3.40;0.70;;;17.60;99.90;;;;;;5074224;28;20244;-68
2022/10/28 12:29:53;;;;;;;2.77;0.70;;;17.60;99.90;;;;;;5074843;28;20212;-68
2022/10/28 12:32:34;;;;;;;2.17;0.60;;;17.50;99.90;;;;;;5074508;28;20171;-68
2022/10/28 12:35:07;;;;;;;1.47;1.00;;;17.40;99.90;;;;;;5074095;28;20172;-68
2022/10/28 12:37:38;;;;;;;2.50;0.70;;;17.50;99.90;;;;;;5072813;28;20650;-67
2022/10/28 12:40:21;;;;;;;1.57;0.80;;;17.50;99.90;;;;;;5074419;28;20671;-67
2022/10/28 12:43:14;;;;;;;3.30;0.70;;;17.60;99.90;;;;;;5074262;28;20180;-67
2022/10/28 12:45:42;;;;;;;1.80;0.63;;;17.60;99.90;;;;;;5074200;28;20199;-67
2022/10/28 12:51:39;;;;;;;2.47;0.80;;;17.70;99.90;;;;;;5073620;28;20537;-67
2022/10/28 12:54:26;;;;;;;4.53;0.70;;;17.70;99.90;;;;;;5074098;28;20615;-67
2022/10/28 12:57:14;;;;;;;2.77;0.50;;;17.70;99.90;;;;;;5073919;28;20672;-67
2022/10/28 13:00:14;;;;;;;2.60;0.63;;;17.70;99.90;;;;;;5073619;28;20254;-68
2022/10/28 13:02:49;;;;;;;2.40;1.27;;;17.90;99.90;;;;;;5074005;28;20184;-68
2022/10/28 13:05:25;;;;;;;0.60;0.60;;;17.90;99.90;;;;;;5073755;28;20188;-68
2022/10/28 13:08:20;;;;;;;1.17;0.50;;;17.80;99.90;;;;;;5074151;28;20176;-68
2022/10/28 13:11:28;;;;;;;1.67;0.63;;;17.80;99.90;;;;;;5065202;28;20264;-68
2022/10/28 13:14:02;;;;;;;0.77;0.60;;;17.80;99.90;;;;;;5073905;28;20179;-68
2022/10/28 13:16:51;;;;;;;3.20;0.80;;;18.00;99.90;;;;;;5073525;28;20197;-68
2022/10/28 13:19:45;;;;;;;3.43;1.47;;;18.00;99.90;;;;;;5073726;28;20263;-68
2022/10/28 13:22:29;;;;;;;4.90;0.80;;;18.00;99.90;;;;;;5073633;28;20233;-68
2022/10/28 13:25:03;;;;;;;1.53;0.70;;;18.00;99.90;;;;;;5073623;28;20253;-68
2022/10/28 13:27:30;;;;;;;1.30;0.90;;;18.00;99.90;;;;;;5073203;28;20255;-68
2022/10/28 13:30:01;;;;;;;1.80;0.80;;;17.90;99.90;;;;;;5073632;28;20183;-68